Time,TemperatureF,DewpointF,PressureIn,WindDirection,WindDirectionDegrees,WindSpeedMPH,WindSpeedGustMPH,Humidity,HourlyPrecipIn,Conditions,Clouds,dailyrainin,SolarRadiationWatts/m^2,SoftwareType,DateUTC
2013-08-28 10:14:00,67.0,48.0,-100.00,WNW,287,0.0,3.0,51,-99.99,,,0.00,325.000000,,2013-08-28 17:14:00,
2013-08-28 10:24:00,67.0,48.0,-100.00,WNW,287,0.0,3.0,51,-99.99,,,0.00,325.000000,,2013-08-28 17:24:00,
2013-08-28 10:35:00,67.0,48.0,-100.00,WNW,287,0.0,3.0,51,-99.99,,,0.00,325.000000,,2013-08-28 17:35:00,
2013-08-28 10:43:00,67.0,48.0,-100.00,WNW,287,0.0,3.0,51,-99.99,,,0.00,325.000000,,2013-08-28 17:43:00,
2013-08-28 11:12:00,74.0,48.0,-100.00,WSW,241,8.0,15.0,40,0.00,,,0.00,530.000000,,2013-08-28 18:12:00,
2013-08-28 11:21:00,74.0,48.0,-100.00,WSW,241,8.0,15.0,40,0.00,,,0.00,530.000000,,2013-08-28 18:21:00,
2013-08-28 11:31:00,74.0,48.0,-100.00,WSW,241,8.0,15.0,40,0.00,,,0.00,530.000000,,2013-08-28 18:31:00,
2013-08-28 11:42:00,74.0,48.0,-100.00,WSW,241,8.0,15.0,40,0.00,,,0.00,530.000000,,2013-08-28 18:42:00,
2013-08-28 12:12:00,76.0,46.0,-100.00,SW,225,6.0,18.0,35,0.00,,,0.00,627.000000,,2013-08-28 19:12:00,
2013-08-28 12:21:00,76.0,46.0,-100.00,SW,225,6.0,18.0,35,0.00,,,0.00,627.000000,,2013-08-28 19:21:00,
2013-08-28 12:32:00,76.0,46.0,-100.00,SW,225,6.0,18.0,35,0.00,,,0.00,627.000000,,2013-08-28 19:32:00,
2013-08-28 12:42:00,76.0,46.0,-100.00,SW,225,6.0,18.0,35,0.00,,,0.00,627.000000,,2013-08-28 19:42:00,
2013-08-28 13:12:00,77.0,47.0,-100.00,WSW,241,9.0,20.0,35,0.00,,,-99.99,672.000000,,2013-08-28 20:12:00,
2013-08-28 13:23:00,77.0,47.0,-100.00,WSW,241,9.0,20.0,35,0.00,,,-99.99,672.000000,,2013-08-28 20:23:00,
2013-08-28 13:32:00,77.0,47.0,-100.00,WSW,241,9.0,20.0,35,0.00,,,-99.99,672.000000,,2013-08-28 20:32:00,
2013-08-28 13:43:00,77.0,47.0,-100.00,WSW,241,9.0,20.0,35,0.00,,,-99.99,672.000000,,2013-08-28 20:43:00,
2013-08-28 14:12:00,78.0,47.0,-100.00,ESE,118,7.0,19.0,34,0.00,,,0.00,648.000000,,2013-08-28 21:12:00,
2013-08-28 14:22:00,78.0,47.0,-100.00,ESE,118,7.0,19.0,34,0.00,,,0.00,648.000000,,2013-08-28 21:22:00,
2013-08-28 14:35:00,78.0,47.0,-100.00,ESE,118,7.0,19.0,34,0.00,,,0.00,648.000000,,2013-08-28 21:35:00,
2013-08-28 14:43:00,78.0,47.0,-100.00,ESE,118,7.0,19.0,34,0.00,,,0.00,648.000000,,2013-08-28 21:43:00,
2013-08-28 15:25:00,78.0,47.0,-100.00,SW,235,9.0,24.0,33,0.00,,,0.00,620.000000,,2013-08-28 22:25:00,
2013-08-28 15:34:00,78.0,47.0,-100.00,SW,235,9.0,24.0,33,0.00,,,0.00,620.000000,,2013-08-28 22:34:00,
2013-08-28 15:43:00,78.0,47.0,-100.00,SW,235,9.0,24.0,33,0.00,,,0.00,620.000000,,2013-08-28 22:43:00,
2013-08-28 16:13:00,76.0,46.0,-100.00,WSW,242,9.0,23.0,34,0.00,,,0.00,525.000000,,2013-08-28 23:13:00,
2013-08-28 16:22:00,76.0,46.0,-100.00,WSW,242,9.0,23.0,34,0.00,,,0.00,525.000000,,2013-08-28 23:22:00,
2013-08-28 16:33:00,76.0,46.0,-100.00,WSW,242,9.0,23.0,34,0.00,,,0.00,525.000000,,2013-08-28 23:33:00,
2013-08-28 16:42:00,76.0,46.0,-100.00,WSW,242,9.0,23.0,34,0.00,,,0.00,525.000000,,2013-08-28 23:42:00,
2013-08-28 17:11:00,74.0,43.0,-100.00,SW,224,8.0,19.0,33,0.00,,,0.00,346.000000,,2013-08-29 00:11:00,
2013-08-28 18:12:00,74.0,44.0,-100.00,SW,232,6.0,18.0,34,0.00,,,0.00,192.000000,,2013-08-29 01:12:00,
2013-08-28 18:22:00,74.0,44.0,-100.00,SW,232,6.0,18.0,34,0.00,,,0.00,192.000000,,2013-08-29 01:22:00,
2013-08-28 18:32:00,74.0,44.0,-100.00,SW,232,6.0,18.0,34,0.00,,,0.00,192.000000,,2013-08-29 01:32:00,
2013-08-28 18:42:00,74.0,44.0,-100.00,SW,232,6.0,18.0,34,0.00,,,0.00,192.000000,,2013-08-29 01:42:00,
2013-08-28 19:11:00,70.0,41.0,-100.00,SW,224,6.0,18.0,35,0.00,,,0.00,106.000000,,2013-08-29 02:11:00,
2013-08-28 19:22:00,70.0,41.0,-100.00,SW,224,6.0,18.0,35,0.00,,,0.00,106.000000,,2013-08-29 02:22:00,
2013-08-28 19:32:00,70.0,41.0,-100.00,SW,224,6.0,18.0,35,0.00,,,0.00,106.000000,,2013-08-29 02:32:00,
2013-08-28 19:43:00,70.0,41.0,-100.00,SW,224,6.0,18.0,35,0.00,,,0.00,106.000000,,2013-08-29 02:43:00,
2013-08-28 20:11:00,68.0,41.0,-100.00,SW,216,4.0,16.0,37,0.00,,,0.00,29.000000,,2013-08-29 03:11:00,
2013-08-28 20:22:00,68.0,41.0,-100.00,SW,216,4.0,16.0,37,0.00,,,0.00,29.000000,,2013-08-29 03:22:00,
2013-08-28 20:37:00,68.0,41.0,-100.00,SW,216,4.0,16.0,37,0.00,,,0.00,29.000000,,2013-08-29 03:37:00,
2013-08-28 20:45:00,68.0,41.0,-100.00,SW,216,4.0,16.0,37,0.00,,,0.00,29.000000,,2013-08-29 03:45:00,
2013-08-28 21:28:00,68.0,41.0,-100.00,NNW,338,6.0,13.0,38,0.00,,,0.00,0.000000,,2013-08-29 04:28:00,
2013-08-28 21:37:00,68.0,41.0,-100.00,NNW,338,6.0,13.0,38,0.00,,,0.00,0.000000,,2013-08-29 04:37:00,
2013-08-28 21:45:00,68.0,41.0,-100.00,NNW,338,6.0,13.0,38,0.00,,,0.00,0.000000,,2013-08-29 04:45:00,
2013-08-28 22:14:00,65.0,40.0,-100.00,SSW,200,4.0,16.0,40,0.00,,,0.00,0.000000,,2013-08-29 05:14:00,
2013-08-28 22:23:00,65.0,40.0,-100.00,SSW,200,4.0,16.0,40,0.00,,,0.00,0.000000,,2013-08-29 05:23:00,
2013-08-28 22:34:00,65.0,40.0,-100.00,SSW,200,4.0,16.0,40,0.00,,,0.00,0.000000,,2013-08-29 05:34:00,
2013-08-28 22:42:00,65.0,40.0,-100.00,SSW,200,4.0,16.0,40,0.00,,,0.00,0.000000,,2013-08-29 05:42:00,
2013-08-28 23:12:00,64.0,40.0,-100.00,South,173,3.0,10.0,42,0.00,,,0.00,0.000000,,2013-08-29 06:12:00,
2013-08-28 23:22:00,64.0,40.0,-100.00,South,173,3.0,10.0,42,0.00,,,0.00,0.000000,,2013-08-29 06:22:00,
2013-08-28 23:32:00,64.0,40.0,-100.00,South,173,3.0,10.0,42,0.00,,,0.00,0.000000,,2013-08-29 06:32:00,
2013-08-28 23:43:00,64.0,40.0,-100.00,South,173,3.0,10.0,42,0.00,,,0.00,0.000000,,2013-08-29 06:43:00,